Aviation Digital Data Service (ADDS)

Output produced by METARs form (2119 UTC 27 May 2017)
found at http://aviationweather.gov/adds/metars/
 
KCAR 271720Z 2718/2818 05005KT P6SM FEW050 
     FM281400 VRB03KT P6SM VCSH BKN150